createdAt,value
2022-12-20T00:04:45.596Z,3.32
2022-12-20T00:12:19.391Z,3.33
2022-12-20T00:19:54.707Z,3.32
2022-12-20T00:27:28.493Z,3.34
2022-12-20T00:35:03.748Z,3.32
2022-12-20T00:42:38.489Z,3.42
2022-12-20T00:50:14.309Z,3.39
2022-12-20T00:57:48.088Z,3.35
2022-12-20T01:05:23.357Z,3.42
2022-12-20T01:12:57.111Z,3.43
2022-12-20T01:20:32.366Z,3.42
2022-12-20T01:28:06.183Z,3.46
2022-12-20T01:35:41.383Z,3.44
2022-12-20T01:43:16.670Z,3.46
2022-12-20T01:50:53.422Z,3.40
2022-12-20T01:58:27.324Z,3.44
2022-12-20T02:06:16.614Z,3.46
2022-12-20T02:14:01.413Z,3.45
2022-12-20T02:21:41.490Z,3.45
2022-12-20T02:29:24.802Z,3.44
2022-12-20T02:37:01.310Z,3.50
2022-12-20T02:44:56.586Z,3.55
2022-12-20T02:52:32.762Z,3.57
2022-12-20T03:00:10.004Z,3.68
2022-12-20T03:07:45.207Z,3.76
2022-12-20T03:15:19.213Z,3.74
2022-12-20T03:22:54.600Z,3.79
2022-12-20T03:30:28.610Z,3.80
2022-12-20T03:38:03.782Z,3.84
2022-12-20T03:45:38.302Z,3.86
2022-12-20T03:53:13.430Z,3.93
2022-12-20T04:00:47.815Z,3.93
2022-12-20T04:08:23.003Z,3.95
2022-12-20T04:16:00.744Z,3.97
2022-12-20T04:23:38.232Z,3.99
2022-12-20T04:31:14.211Z,3.95
2022-12-20T04:38:52.510Z,3.98
2022-12-20T04:46:28.282Z,3.88
2022-12-20T04:54:03.443Z,3.78
2022-12-20T05:01:37.416Z,3.74
2022-12-20T05:09:12.648Z,3.69
2022-12-20T05:16:46.438Z,3.67
2022-12-20T05:24:39.321Z,3.68
2022-12-20T05:32:13.189Z,3.77
2022-12-20T05:39:48.492Z,3.83
2022-12-20T05:47:23.111Z,3.91
2022-12-20T05:54:58.087Z,3.96
2022-12-20T06:02:32.206Z,4.05
2022-12-20T06:10:09.605Z,4.24
2022-12-20T06:17:43.453Z,4.24
2022-12-20T06:25:18.917Z,4.22
2022-12-20T06:32:52.754Z,4.23
2022-12-20T06:40:28.091Z,4.28
2022-12-20T06:48:02.321Z,4.30
2022-12-20T06:55:37.611Z,4.31
2022-12-20T07:03:11.586Z,4.42
2022-12-20T07:10:47.339Z,4.39
2022-12-20T07:18:21.177Z,4.50
2022-12-20T07:25:57.823Z,4.47
2022-12-20T07:33:34.214Z,4.63
2022-12-20T07:41:11.029Z,4.68
2022-12-20T07:48:46.812Z,4.64
2022-12-20T07:56:23.232Z,4.71
2022-12-20T08:04:00.853Z,4.75
2022-12-20T08:11:38.452Z,4.78
2022-12-20T08:19:15.824Z,4.87
2022-12-20T08:26:51.137Z,4.85
2022-12-20T08:34:25.047Z,4.83
2022-12-20T08:42:00.343Z,4.90
2022-12-20T08:49:35.171Z,4.99
2022-12-20T08:57:10.424Z,5.02
2022-12-20T09:04:44.593Z,5.06
2022-12-20T09:12:19.936Z,5.15
2022-12-20T09:19:55.223Z,5.17
2022-12-20T09:27:30.691Z,5.27
2022-12-20T09:35:04.626Z,5.47
2022-12-20T09:42:39.872Z,5.51
2022-12-20T09:50:17.856Z,5.65
2022-12-20T09:58:04.732Z,5.76
2022-12-20T10:05:43.942Z,5.78
2022-12-20T10:13:42.578Z,5.90
2022-12-20T10:21:27.828Z,5.91
2022-12-20T10:29:03.783Z,6.07
2022-12-20T10:36:38.987Z,6.18
2022-12-20T10:44:21.799Z,6.22
2022-12-20T10:51:57.458Z,6.37
2022-12-20T10:59:35.950Z,6.40
2022-12-20T11:07:25.948Z,6.45
2022-12-20T11:15:12.850Z,6.53
2022-12-20T11:22:58.801Z,6.59
2022-12-20T11:30:41.705Z,6.70
2022-12-20T11:38:24.526Z,6.93
2022-12-20T11:46:22.166Z,6.91
2022-12-20T11:54:02.481Z,6.91
2022-12-20T12:01:43.593Z,6.98
2022-12-20T12:09:25.339Z,7.07
2022-12-20T12:17:08.972Z,7.11
2022-12-20T12:24:48.321Z,7.15
2022-12-20T12:32:31.480Z,7.22
2022-12-20T12:40:20.589Z,7.20
2022-12-20T12:47:59.885Z,7.33
2022-12-20T12:55:41.062Z,7.41
2022-12-20T13:03:18.474Z,7.39
2022-12-20T13:11:02.197Z,7.23
2022-12-20T13:18:37.536Z,7.17
2022-12-20T13:26:51.118Z,7.15
2022-12-20T13:34:41.438Z,7.15
2022-12-20T13:42:27.377Z,7.11
2022-12-20T13:50:21.763Z,7.02
2022-12-20T13:57:56.174Z,7.06
2022-12-20T14:05:38.087Z,6.96
2022-12-20T14:13:24.154Z,7.00
2022-12-20T14:21:02.771Z,6.90
2022-12-20T14:28:39.903Z,6.81
2022-12-20T14:36:21.508Z,6.77
2022-12-20T14:43:57.876Z,6.76
2022-12-20T14:59:27.608Z,6.60
2022-12-20T15:07:04.165Z,6.52
2022-12-20T15:14:40.937Z,6.45
2022-12-20T15:22:20.247Z,6.43
2022-12-20T15:29:55.353Z,6.33
2022-12-20T15:37:30.686Z,6.27
2022-12-20T15:45:04.936Z,6.15
2022-12-20T15:52:40.240Z,6.09
2022-12-20T16:00:15.242Z,6.06
2022-12-20T16:07:50.705Z,5.99
2022-12-20T16:15:25.947Z,5.94
2022-12-20T16:23:01.984Z,5.90
2022-12-20T16:30:36.614Z,5.93
2022-12-20T16:38:11.674Z,5.95
2022-12-20T16:45:45.670Z,5.90
2022-12-20T16:53:21.009Z,5.85
2022-12-20T17:00:55.163Z,5.74
2022-12-20T17:16:25.677Z,5.79
2022-12-20T17:24:01.243Z,5.80
2022-12-20T17:31:39.637Z,5.89
2022-12-20T17:39:15.736Z,5.96
2022-12-20T17:46:49.691Z,6.09
2022-12-20T17:54:26.810Z,6.13
2022-12-20T18:02:01.043Z,6.13
2022-12-20T18:09:36.699Z,6.18
2022-12-20T18:17:10.910Z,6.18
2022-12-20T18:24:46.334Z,6.11
2022-12-20T18:32:20.172Z,6.10
2022-12-20T18:39:55.637Z,6.07
2022-12-20T18:47:29.871Z,6.00
2022-12-20T18:55:06.502Z,5.99
2022-12-20T19:02:40.366Z,6.08
2022-12-20T19:10:15.948Z,5.96
2022-12-20T19:17:51.277Z,5.91
2022-12-20T19:25:26.718Z,5.90
2022-12-20T19:33:00.665Z,5.78
2022-12-20T19:40:35.891Z,5.70
2022-12-20T19:48:10.410Z,5.65
2022-12-20T19:55:53.651Z,5.58
2022-12-20T20:03:27.778Z,5.51
2022-12-20T20:11:09.439Z,5.49
2022-12-20T20:18:45.920Z,5.48
2022-12-20T20:26:24.031Z,5.46
2022-12-20T20:33:58.909Z,5.43
2022-12-20T20:41:34.321Z,5.39
2022-12-20T20:49:09.632Z,5.41
2022-12-20T20:56:44.934Z,5.35
2022-12-20T21:04:18.812Z,5.30
2022-12-20T21:11:54.360Z,5.32
2022-12-20T21:19:28.270Z,5.38
2022-12-20T21:27:03.723Z,5.30
2022-12-20T21:34:37.495Z,5.28
2022-12-20T21:42:12.916Z,5.31
2022-12-20T21:49:46.974Z,5.27
2022-12-20T21:57:22.232Z,5.22
2022-12-20T22:04:55.950Z,5.23
2022-12-20T22:12:31.893Z,5.20
2022-12-20T22:20:08.274Z,5.19
2022-12-20T22:27:43.703Z,5.20
2022-12-20T22:35:22.456Z,5.18
2022-12-20T22:42:58.221Z,5.21
2022-12-20T22:50:31.937Z,5.24
2022-12-20T22:58:07.151Z,5.23
2022-12-20T23:05:40.975Z,5.27
2022-12-20T23:13:34.020Z,5.29
2022-12-20T23:21:25.448Z,5.31
2022-12-20T23:29:01.271Z,5.25
2022-12-20T23:36:35.562Z,5.24
2022-12-20T23:44:10.777Z,5.19
2022-12-20T23:51:44.892Z,5.19
2022-12-20T23:59:19.973Z,5.14
